Time;durP1;ratioP1;P1;durP2;ratioP2;P2;SDS_P1;SDS_P2;PMS_P1;PMS_P2;Temp;Humidity;BMP_temperature;BMP_pressure;BME280_temperature;BME280_humidity;BME280_pressure;Samples;Min_cycle;Max_cycle;Signal;HPM_P1;HPM_P2
2022/09/03 00:00:37;;;;;;;6.62;4.00;;;;;;;;;;1744001;80;21048;-68
2022/09/03 00:03:17;;;;;;;7.60;4.35;;;;;;;;;;1716451;82;21036;-68
2022/09/03 00:06:02;;;;;;;6.00;3.62;;;;;;;;;;1742258;80;21071;-68
2022/09/03 00:08:37;;;;;;;5.90;3.80;;;;;;;;;;1744658;80;21048;-68
2022/09/03 00:11:05;;;;;;;7.25;3.90;;;;;;;;;;1716288;82;21064;-68
2022/09/03 00:13:43;;;;;;;5.53;3.85;;;;;;;;;;1704971;82;21072;-69
2022/09/03 00:16:10;;;;;;;6.08;4.10;;;;;;;;;;1702985;82;21065;-69
2022/09/03 00:18:44;;;;;;;6.65;3.95;;;;;;;;;;1681621;84;21072;-68
2022/09/03 00:21:21;;;;;;;11.55;4.30;;;;;;;;;;1675534;85;21709;-68
2022/09/03 00:23:47;;;;;;;5.85;4.00;;;;;;;;;;1696176;83;21112;-68
2022/09/03 00:26:16;;;;;;;6.67;4.17;;;;;;;;;;1721495;82;21037;-68
2022/09/03 00:28:53;;;;;;;9.18;4.00;;;;;;;;;;1710210;82;21060;-68
2022/09/03 00:31:23;;;;;;;8.30;4.10;;;;;;;;;;1665241;85;21030;-69
2022/09/03 00:33:50;;;;;;;6.37;3.80;;;;;;;;;;1664631;85;21065;-68
2022/09/03 00:36:18;;;;;;;5.12;3.50;;;;;;;;;;1709061;82;21088;-68
2022/09/03 00:38:44;;;;;;;7.55;4.00;;;;;;;;;;1702435;84;21043;-66
2022/09/03 00:41:15;;;;;;;6.97;3.50;;;;;;;;;;1699952;84;21092;-68
2022/09/03 00:43:45;;;;;;;5.47;3.60;;;;;;;;;;1668470;85;21079;-68
2022/09/03 00:46:29;;;;;;;5.67;3.80;;;;;;;;;;1675537;84;21074;-68
2022/09/03 00:49:10;;;;;;;6.17;3.75;;;;;;;;;;1681094;85;21121;-68
2022/09/03 00:51:41;;;;;;;6.42;3.70;;;;;;;;;;1675345;85;21085;-68
2022/09/03 00:54:25;;;;;;;6.00;3.55;;;;;;;;;;1713298;82;21090;-68
2022/09/03 00:57:11;;;;;;;6.65;3.77;;;;;;;;;;1702892;84;21116;-68
2022/09/03 00:59:40;;;;;;;7.22;4.00;;;;;;;;;;1709839;82;21118;-69
2022/09/03 01:05:03;;;;;;;6.15;3.67;;;;;;;;;;1641081;79;21136;-68
2022/09/03 01:07:32;;;;;;;6.08;3.87;;;;;;;;;;1636542;86;21096;-67
2022/09/03 01:10:01;;;;;;;5.72;3.83;;;;;;;;;;1634497;86;21091;-68
2022/09/03 01:12:35;;;;;;;8.03;3.77;;;;;;;;;;1598706;88;21070;-68
2022/09/03 01:15:10;;;;;;;8.30;3.50;;;;;;;;;;1582874;89;21102;-68
2022/09/03 01:17:37;;;;;;;7.62;3.92;;;;;;;;;;1592949;89;21128;-67
2022/09/03 01:20:06;;;;;;;8.18;3.70;;;;;;;;;;1644033;86;21117;-68
2022/09/03 01:22:37;;;;;;;5.92;3.72;;;;;;;;;;1643483;86;21048;-68
2022/09/03 01:25:22;;;;;;;5.47;3.22;;;;;;;;;;1650783;86;21072;-68
2022/09/03 01:27:49;;;;;;;6.22;3.60;;;;;;;;;;1646430;86;21532;-67
2022/09/03 01:30:19;;;;;;;5.25;3.80;;;;;;;;;;1654378;86;21061;-68
2022/09/03 01:32:59;;;;;;;4.85;3.15;;;;;;;;;;1645375;86;21632;-69
2022/09/03 01:35:27;;;;;;;4.75;3.40;;;;;;;;;;1640173;86;21115;-68
2022/09/03 01:38:13;;;;;;;5.03;3.58;;;;;;;;;;1634455;86;21065;-67
2022/09/03 01:42:12;;;;;;;5.33;3.45;;;;;;;;;;1637021;86;21079;-67
2022/09/03 01:43:35;;;;;;;6.37;3.83;;;;;;;;;;1632983;86;21115;-68
2022/09/03 01:46:03;;;;;;;6.55;3.40;;;;;;;;;;1642358;86;21122;-68
2022/09/03 01:48:42;;;;;;;6.87;3.47;;;;;;;;;;1636069;86;21403;-68
2022/09/03 01:51:11;;;;;;;8.43;3.90;;;;;;;;;;1645778;86;21063;-68
2022/09/03 01:53:42;;;;;;;7.53;3.47;;;;;;;;;;1635612;86;21119;-68
2022/09/03 01:56:27;;;;;;;6.67;3.27;;;;;;;;;;1638128;86;21112;-68
2022/09/03 01:59:02;;;;;;;7.00;3.72;;;;;;;;;;1635871;86;21092;-68
2022/09/03 02:01:30;;;;;;;6.17;3.40;;;;;;;;;;1630558;86;21057;-68
2022/09/03 02:03:58;;;;;;;7.35;3.60;;;;;;;;;;1653356;85;21187;-67
2022/09/03 02:06:24;;;;;;;6.22;3.55;;;;;;;;;;1667561;84;21025;-68
2022/09/03 02:08:52;;;;;;;6.42;4.10;;;;;;;;;;1665359;84;21558;-68
2022/09/03 02:11:18;;;;;;;6.58;3.47;;;;;;;;;;1668285;84;21110;-68
2022/09/03 02:13:47;;;;;;;6.65;3.37;;;;;;;;;;1667226;84;21066;-69
2022/09/03 02:16:15;;;;;;;6.22;3.50;;;;;;;;;;1667281;84;21045;-69
2022/09/03 02:18:45;;;;;;;5.95;3.35;;;;;;;;;;1667746;84;21025;-69
2022/09/03 02:21:12;;;;;;;5.45;3.15;;;;;;;;;;1660168;84;21058;-69
2022/09/03 02:23:39;;;;;;;5.60;3.60;;;;;;;;;;1667288;84;21045;-68
2022/09/03 02:26:05;;;;;;;5.35;3.30;;;;;;;;;;1666639;84;21069;-68
2022/09/03 02:28:31;;;;;;;6.78;3.87;;;;;;;;;;1666832;84;22270;-67
2022/09/03 02:30:57;;;;;;;6.95;3.42;;;;;;;;;;1668011;84;21061;-69
2022/09/03 02:33:23;;;;;;;5.45;3.40;;;;;;;;;;1668115;84;21045;-68
2022/09/03 02:35:50;;;;;;;7.37;3.60;;;;;;;;;;1667887;84;21081;-68
2022/09/03 02:38:17;;;;;;;5.53;3.33;;;;;;;;;;1662341;84;21032;-68
2022/09/03 02:40:44;;;;;;;5.70;3.52;;;;;;;;;;1664591;84;21077;-68
2022/09/03 02:43:12;;;;;;;5.33;3.35;;;;;;;;;;1667246;84;21069;-68
2022/09/03 02:45:40;;;;;;;7.90;3.80;;;;;;;;;;1668013;84;21047;-68
2022/09/03 02:48:07;;;;;;;8.98;3.67;;;;;;;;;;1661409;84;21577;-68
2022/09/03 02:50:35;;;;;;;5.67;3.58;;;;;;;;;;1666991;84;21129;-68
2022/09/03 02:53:02;;;;;;;6.65;3.40;;;;;;;;;;1664874;84;21600;-68
2022/09/03 02:55:28;;;;;;;7.92;3.67;;;;;;;;;;1663526;84;21036;-68
2022/09/03 02:57:55;;;;;;;5.10;3.30;;;;;;;;;;1667860;84;21557;-68
2022/09/03 03:00:21;;;;;;;6.30;3.37;;;;;;;;;;1667920;84;21060;-68
2022/09/03 03:02:48;;;;;;;4.53;3.27;;;;;;;;;;1667092;84;21592;-69
2022/09/03 03:05:16;;;;;;;5.33;3.00;;;;;;;;;;1665629;84;21074;-68
2022/09/03 03:07:43;;;;;;;5.28;3.20;;;;;;;;;;1666798;84;21034;-68
2022/09/03 03:10:09;;;;;;;5.33;3.20;;;;;;;;;;1667074;84;21076;-68
2022/09/03 03:12:36;;;;;;;6.30;3.17;;;;;;;;;;1665771;84;21537;-68
2022/09/03 03:15:03;;;;;;;7.37;3.72;;;;;;;;;;1662369;84;21062;-68
2022/09/03 03:17:30;;;;;;;5.72;3.33;;;;;;;;;;1650229;86;21085;-68
2022/09/03 03:19:56;;;;;;;6.62;3.37;;;;;;;;;;1659457;84;21069;-69
2022/09/03 03:22:22;;;;;;;5.58;3.55;;;;;;;;;;1667582;84;21045;-68
2022/09/03 03:24:49;;;;;;;7.65;3.75;;;;;;;;;;1668080;84;21081;-68
2022/09/03 03:27:15;;;;;;;6.45;3.87;;;;;;;;;;1667405;86;21037;-68
2022/09/03 03:29:41;;;;;;;8.60;3.47;;;;;;;;;;1667913;86;21520;-69
2022/09/03 03:32:07;;;;;;;6.78;3.20;;;;;;;;;;1631232;87;21105;-68
2022/09/03 03:34:35;;;;;;;6.92;3.30;;;;;;;;;;1669228;84;21073;-69
2022/09/03 03:37:01;;;;;;;8.33;3.30;;;;;;;;;;1668207;84;21583;-69
2022/09/03 03:39:27;;;;;;;5.15;3.17;;;;;;;;;;1667762;84;21117;-68
2022/09/03 03:41:53;;;;;;;6.03;3.60;;;;;;;;;;1667049;84;21069;-69
2022/09/03 03:44:19;;;;;;;6.92;3.30;;;;;;;;;;1641844;85;21072;-69
2022/09/03 03:46:45;;;;;;;4.75;2.65;;;;;;;;;;1667019;84;21042;-68
2022/09/03 03:49:11;;;;;;;7.22;3.70;;;;;;;;;;1668332;84;21613;-68
2022/09/03 03:51:38;;;;;;;7.97;4.00;;;;;;;;;;1671592;84;21038;-68
2022/09/03 03:54:04;;;;;;;6.03;3.75;;;;;;;;;;1669070;84;21084;-68
2022/09/03 03:56:30;;;;;;;9.25;4.30;;;;;;;;;;1667623;84;21065;-68
2022/09/03 03:58:57;;;;;;;7.65;4.50;;;;;;;;;;1667223;84;22249;-68
2022/09/03 04:01:24;;;;;;;7.75;4.15;;;;;;;;;;1662274;84;21018;-68
2022/09/03 04:03:51;;;;;;;7.17;4.05;;;;;;;;;;1664284;84;21129;-67
2022/09/03 04:06:18;;;;;;;6.80;3.90;;;;;;;;;;1664679;84;21344;-68
2022/09/03 04:08:46;;;;;;;7.03;4.53;;;;;;;;;;1666415;84;21105;-68
2022/09/03 04:11:14;;;;;;;7.28;4.03;;;;;;;;;;1663703;84;21576;-68
2022/09/03 04:13:41;;;;;;;7.47;4.17;;;;;;;;;;1660469;84;21021;-68
2022/09/03 04:16:10;;;;;;;8.88;4.28;;;;;;;;;;1667500;84;21505;-68
2022/09/03 04:18:37;;;;;;;8.83;4.37;;;;;;;;;;1667924;84;21077;-68
2022/09/03 04:21:05;;;;;;;7.78;4.50;;;;;;;;;;1667922;84;21576;-68
2022/09/03 04:23:33;;;;;;;7.15;4.10;;;;;;;;;;1665022;84;21640;-68
2022/09/03 04:25:59;;;;;;;8.03;4.08;;;;;;;;;;1666643;84;21041;-68
2022/09/03 04:28:26;;;;;;;5.97;3.75;;;;;;;;;;1663522;84;21015;-68
2022/09/03 04:30:52;;;;;;;9.38;4.67;;;;;;;;;;1665836;84;21529;-68
2022/09/03 04:33:19;;;;;;;7.30;4.00;;;;;;;;;;1666490;84;21076;-68
2022/09/03 04:35:45;;;;;;;6.15;3.85;;;;;;;;;;1668155;84;21138;-68
2022/09/03 04:38:11;;;;;;;7.12;4.10;;;;;;;;;;1665891;84;21080;-67
2022/09/03 04:40:37;;;;;;;5.78;3.50;;;;;;;;;;1665519;84;21589;-68
2022/09/03 04:43:03;;;;;;;8.80;3.83;;;;;;;;;;1666994;84;21038;-68
2022/09/03 04:45:30;;;;;;;6.10;3.62;;;;;;;;;;1663651;84;21105;-68
2022/09/03 04:47:56;;;;;;;7.22;3.83;;;;;;;;;;1667327;84;21083;-68
2022/09/03 04:50:23;;;;;;;8.50;4.10;;;;;;;;;;1667146;84;21064;-68
2022/09/03 04:52:49;;;;;;;6.00;3.70;;;;;;;;;;1666871;84;21038;-68
2022/09/03 04:55:15;;;;;;;7.37;3.83;;;;;;;;;;1667534;84;21158;-68
2022/09/03 04:57:43;;;;;;;8.48;3.80;;;;;;;;;;1665985;84;21082;-68
2022/09/03 05:00:10;;;;;;;5.83;3.75;;;;;;;;;;1666608;84;21080;-68
2022/09/03 05:02:36;;;;;;;8.15;4.12;;;;;;;;;;1668097;84;21718;-68
2022/09/03 05:05:03;;;;;;;8.13;3.70;;;;;;;;;;1666831;84;21042;-68
2022/09/03 05:07:37;;;;;;;13.88;4.30;;;;;;;;;;1663413;84;21524;-68
2022/09/03 05:09:57;;;;;;;9.70;4.10;;;;;;;;;;1664911;84;21046;-68
2022/09/03 05:12:24;;;;;;;9.63;3.70;;;;;;;;;;1666451;84;21528;-69
2022/09/03 05:14:51;;;;;;;9.20;3.87;;;;;;;;;;1664911;84;21089;-68
2022/09/03 05:17:17;;;;;;;6.67;3.77;;;;;;;;;;1667626;84;21077;-68
2022/09/03 05:19:43;;;;;;;6.12;3.75;;;;;;;;;;1668013;84;21096;-67
2022/09/03 05:22:10;;;;;;;7.35;4.17;;;;;;;;;;1626164;87;21032;-68
2022/09/03 05:24:36;;;;;;;8.25;4.03;;;;;;;;;;1644638;84;21038;-67
2022/09/03 05:27:02;;;;;;;13.90;4.55;;;;;;;;;;1668056;84;21086;-68
2022/09/03 05:29:28;;;;;;;7.30;3.80;;;;;;;;;;1667710;84;21003;-68
2022/09/03 05:31:55;;;;;;;8.53;4.05;;;;;;;;;;1667434;84;21102;-67
2022/09/03 05:34:21;;;;;;;7.17;4.12;;;;;;;;;;1638310;86;21086;-68
2022/09/03 05:37:28;;;;;;;6.83;3.90;;;;;;;;;;1804883;78;22901;-70
2022/09/03 05:39:54;;;;;;;8.63;4.12;;;;;;;;;;1774666;80;20986;-71
2022/09/03 05:42:20;;;;;;;9.25;4.35;;;;;;;;;;1768770;80;21319;-70
2022/09/03 05:44:48;;;;;;;8.18;4.28;;;;;;;;;;1777193;80;21048;-71
2022/09/03 05:47:14;;;;;;;8.48;4.20;;;;;;;;;;1774340;80;20984;-70
2022/09/03 05:49:40;;;;;;;10.48;4.12;;;;;;;;;;1775625;80;20991;-70
2022/09/03 05:52:08;;;;;;;8.25;4.40;;;;;;;;;;1767540;80;21008;-71
2022/09/03 05:54:35;;;;;;;14.20;4.47;;;;;;;;;;1777962;80;21586;-70
2022/09/03 05:57:01;;;;;;;7.97;4.22;;;;;;;;;;1774968;80;21055;-70
2022/09/03 05:59:28;;;;;;;7.37;4.25;;;;;;;;;;1775117;80;20992;-69
2022/09/03 06:01:55;;;;;;;8.30;4.20;;;;;;;;;;1765719;80;21025;-70
2022/09/03 06:04:21;;;;;;;11.57;4.65;;;;;;;;;;1773741;80;21056;-70
2022/09/03 06:06:47;;;;;;;12.03;5.55;;;;;;;;;;1773918;80;22171;-69
2022/09/03 06:09:16;;;;;;;9.35;5.72;;;;;;;;;;1772283;80;21044;-71
2022/09/03 06:11:43;;;;;;;9.00;4.75;;;;;;;;;;1781274;80;21035;-71
2022/09/03 06:14:11;;;;;;;9.33;5.20;;;;;;;;;;1770092;80;20984;-68
2022/09/03 06:16:37;;;;;;;8.85;5.00;;;;;;;;;;1758783;80;21088;-68
2022/09/03 06:19:08;;;;;;;11.12;5.92;;;;;;;;;;1737419;82;21052;-68
2022/09/03 06:21:35;;;;;;;14.75;5.92;;;;;;;;;;1749290;82;21056;-67
2022/09/03 06:24:01;;;;;;;10.70;5.87;;;;;;;;;;1742879;82;21079;-67
2022/09/03 06:26:27;;;;;;;12.13;5.60;;;;;;;;;;1740205;82;21044;-68
2022/09/03 06:28:55;;;;;;;11.25;5.30;;;;;;;;;;1746490;82;20996;-68
2022/09/03 06:31:22;;;;;;;8.65;5.50;;;;;;;;;;1745517;82;21805;-68
2022/09/03 06:33:48;;;;;;;12.18;5.97;;;;;;;;;;1752227;82;21514;-68
2022/09/03 06:36:15;;;;;;;12.23;5.95;;;;;;;;;;1746312;82;21048;-68
2022/09/03 06:38:41;;;;;;;12.33;5.75;;;;;;;;;;1730680;82;21017;-68
2022/09/03 06:41:09;;;;;;;12.33;5.55;;;;;;;;;;1739641;82;21017;-68
2022/09/03 06:43:37;;;;;;;8.53;5.17;;;;;;;;;;1731536;82;21034;-69
2022/09/03 06:46:08;;;;;;;10.25;5.22;;;;;;;;;;1724642;82;21065;-69
2022/09/03 06:48:34;;;;;;;10.63;6.17;;;;;;;;;;1722461;82;21040;-68
2022/09/03 06:51:02;;;;;;;8.40;5.30;;;;;;;;;;1747645;81;21024;-68
2022/09/03 06:53:30;;;;;;;9.65;5.53;;;;;;;;;;1723458;82;21194;-68
2022/09/03 06:55:57;;;;;;;11.12;5.42;;;;;;;;;;1734920;81;21040;-68
2022/09/03 06:58:23;;;;;;;10.53;5.42;;;;;;;;;;1726366;82;21013;-69
2022/09/03 07:00:51;;;;;;;10.20;4.72;;;;;;;;;;1741741;81;21059;-68
2022/09/03 07:03:18;;;;;;;9.88;4.90;;;;;;;;;;1699720;84;21058;-68
2022/09/03 07:05:45;;;;;;;11.30;5.65;;;;;;;;;;1730090;82;21013;-68
2022/09/03 07:08:11;;;;;;;7.20;4.45;;;;;;;;;;1723033;82;21155;-70
2022/09/03 07:10:37;;;;;;;10.08;5.80;;;;;;;;;;1719652;82;21064;-68
2022/09/03 07:13:09;;;;;;;25.60;6.20;;;;;;;;;;1720584;82;21084;-69
2022/09/03 07:15:32;;;;;;;10.48;5.55;;;;;;;;;;1715731;82;21023;-69
2022/09/03 07:17:59;;;;;;;10.82;5.40;;;;;;;;;;1717335;82;21533;-69
2022/09/03 07:20:25;;;;;;;6.42;4.33;;;;;;;;;;1711772;82;21064;-68
2022/09/03 07:22:55;;;;;;;9.03;4.47;;;;;;;;;;1709948;84;21029;-69
2022/09/03 07:25:22;;;;;;;10.45;4.33;;;;;;;;;;1715554;82;20990;-70
2022/09/03 07:27:50;;;;;;;7.60;4.42;;;;;;;;;;1722280;82;21006;-69
2022/09/03 07:30:18;;;;;;;7.55;4.37;;;;;;;;;;1724540;82;21101;-68
2022/09/03 07:32:45;;;;;;;9.60;5.45;;;;;;;;;;1722385;82;21096;-68
2022/09/03 07:35:12;;;;;;;8.60;4.75;;;;;;;;;;1720168;82;21053;-69
2022/09/03 07:37:42;;;;;;;10.18;4.75;;;;;;;;;;1726886;81;21017;-70
2022/09/03 07:40:09;;;;;;;8.63;4.80;;;;;;;;;;1722574;82;21039;-69
2022/09/03 07:42:37;;;;;;;7.60;4.28;;;;;;;;;;1723845;82;22253;-69
2022/09/03 07:45:08;;;;;;;6.80;4.15;;;;;;;;;;1724673;82;21032;-69
2022/09/03 07:47:34;;;;;;;13.03;4.58;;;;;;;;;;1725928;81;21543;-70
2022/09/03 07:50:01;;;;;;;7.00;4.00;;;;;;;;;;1737125;82;21067;-67
2022/09/03 07:52:27;;;;;;;12.05;4.37;;;;;;;;;;1694713;84;21110;-69
2022/09/03 07:54:53;;;;;;;7.65;4.62;;;;;;;;;;1728999;82;21031;-69
2022/09/03 07:57:19;;;;;;;8.38;4.55;;;;;;;;;;1724385;82;21630;-68
2022/09/03 07:59:46;;;;;;;12.85;5.08;;;;;;;;;;1679636;84;21121;-69
2022/09/03 08:02:12;;;;;;;10.78;5.58;;;;;;;;;;1723911;82;21052;-69
2022/09/03 08:04:39;;;;;;;12.82;5.95;;;;;;;;;;1722073;82;21674;-69
2022/09/03 08:07:06;;;;;;;9.50;5.12;;;;;;;;;;1724458;82;21031;-68
2022/09/03 08:09:33;;;;;;;9.58;5.05;;;;;;;;;;1723414;82;21024;-69
2022/09/03 08:11:59;;;;;;;9.08;5.28;;;;;;;;;;1723792;82;21051;-69
2022/09/03 08:14:24;;;;;;;13.58;4.97;;;;;;;;;;1722120;82;21034;-69
2022/09/03 08:16:52;;;;;;;11.33;4.70;;;;;;;;;;1723225;82;21144;-69
2022/09/03 08:19:18;;;;;;;9.55;4.78;;;;;;;;;;1724962;82;21066;-69
2022/09/03 08:21:45;;;;;;;6.72;4.75;;;;;;;;;;1732162;81;21077;-72
2022/09/03 08:24:11;;;;;;;9.18;5.17;;;;;;;;;;1739791;82;20972;-71
2022/09/03 08:26:39;;;;;;;7.75;5.10;;;;;;;;;;1734597;82;21007;-71
2022/09/03 08:29:05;;;;;;;8.05;4.97;;;;;;;;;;1732420;82;21681;-71
2022/09/03 08:31:31;;;;;;;9.05;4.53;;;;;;;;;;1730748;82;21522;-70
2022/09/03 08:33:58;;;;;;;8.15;4.45;;;;;;;;;;1730567;81;21015;-70
2022/09/03 08:36:26;;;;;;;7.30;4.72;;;;;;;;;;1723956;82;21023;-74
2022/09/03 08:38:54;;;;;;;9.50;5.10;;;;;;;;;;1733022;82;21049;-76
2022/09/03 08:41:26;;;;;;;10.58;5.15;;;;;;;;;;1692234;83;21021;-81
2022/09/03 08:43:57;;;;;;;13.03;7.37;;;;;;;;;;1678407;84;21052;-72
2022/09/03 08:46:25;;;;;;;8.48;5.10;;;;;;;;;;1667179;86;21623;-74
2022/09/03 08:48:52;;;;;;;11.60;5.03;;;;;;;;;;1668035;85;21057;-69
2022/09/03 08:51:18;;;;;;;11.35;4.22;;;;;;;;;;1666348;84;21045;-70
2022/09/03 08:53:48;;;;;;;8.35;4.10;;;;;;;;;;1677493;85;22318;-69
2022/09/03 08:56:22;;;;;;;9.40;4.03;;;;;;;;;;1669363;85;21114;-71
2022/09/03 08:58:49;;;;;;;6.72;4.00;;;;;;;;;;1673969;85;21073;-70
2022/09/03 09:01:33;;;;;;;6.80;3.83;;;;;;;;;;1669002;85;21152;-68
2022/09/03 09:04:18;;;;;;;11.48;4.20;;;;;;;;;;1675835;85;21061;-71
2022/09/03 09:06:49;;;;;;;6.03;3.85;;;;;;;;;;1673781;85;21108;-70
2022/09/03 09:09:36;;;;;;;5.75;3.30;;;;;;;;;;1678044;85;21104;-72
2022/09/03 09:12:08;;;;;;;4.58;3.17;;;;;;;;;;1668790;85;21085;-68
2022/09/03 09:14:39;;;;;;;7.87;3.40;;;;;;;;;;1669784;85;21616;-68
2022/09/03 09:17:17;;;;;;;10.23;3.20;;;;;;;;;;1674152;85;21069;-70
2022/09/03 09:19:45;;;;;;;5.20;2.87;;;;;;;;;;1677897;85;21093;-67
2022/09/03 09:22:15;;;;;;;4.87;2.72;;;;;;;;;;1679132;85;21077;-67
2022/09/03 09:24:43;;;;;;;3.45;2.20;;;;;;;;;;1680536;85;21117;-67
2022/09/03 09:27:11;;;;;;;4.25;2.50;;;;;;;;;;1678950;85;21053;-68
2022/09/03 09:29:38;;;;;;;4.12;2.35;;;;;;;;;;1668832;85;21544;-69
2022/09/03 09:32:04;;;;;;;5.22;2.60;;;;;;;;;;1673574;85;21072;-67
2022/09/03 09:34:37;;;;;;;3.52;2.70;;;;;;;;;;1681065;85;21080;-68
2022/09/03 09:37:10;;;;;;;5.87;2.60;;;;;;;;;;1692840;83;21481;-68
2022/09/03 09:39:37;;;;;;;4.00;2.40;;;;;;;;;;1731698;82;21081;-67
2022/09/03 09:42:08;;;;;;;5.30;2.60;;;;;;;;;;1735274;82;21592;-67
2022/09/03 09:44:37;;;;;;;4.33;2.67;;;;;;;;;;1744279;82;20945;-67
2022/09/03 09:47:06;;;;;;;6.08;2.50;;;;;;;;;;1739399;82;21104;-68
2022/09/03 09:49:36;;;;;;;4.45;2.60;;;;;;;;;;1731967;82;21035;-68
2022/09/03 09:52:06;;;;;;;3.67;2.30;;;;;;;;;;1742765;82;21032;-68
2022/09/03 09:54:33;;;;;;;6.25;2.60;;;;;;;;;;1733044;82;21017;-68
2022/09/03 09:57:01;;;;;;;3.87;2.40;;;;;;;;;;1744769;82;21067;-69
2022/09/03 09:59:28;;;;;;;3.77;2.42;;;;;;;;;;1739562;82;21036;-67
2022/09/03 10:02:14;;;;;;;6.45;2.75;;;;;;;;;;1737540;82;21008;-69
2022/09/03 10:04:42;;;;;;;5.75;2.77;;;;;;;;;;1741994;82;20981;-68
2022/09/03 10:07:22;;;;;;;3.22;2.45;;;;;;;;;;1746405;82;21064;-69
2022/09/03 10:10:02;;;;;;;4.08;2.30;;;;;;;;;;1749451;82;20997;-71
2022/09/03 10:12:30;;;;;;;4.42;2.67;;;;;;;;;;1739010;82;21044;-69
2022/09/03 10:14:58;;;;;;;6.83;2.80;;;;;;;;;;1747765;82;21175;-70
2022/09/03 10:17:31;;;;;;;6.42;2.80;;;;;;;;;;1729459;81;21386;-70
2022/09/03 10:22:54;;;;;;;4.62;2.80;;;;;;;;;;1689278;84;21048;-70
2022/09/03 10:25:20;;;;;;;5.37;2.70;;;;;;;;;;1735216;82;21033;-70
2022/09/03 10:27:47;;;;;;;10.88;2.80;;;;;;;;;;1743738;82;22077;-70
2022/09/03 10:30:14;;;;;;;6.05;2.95;;;;;;;;;;1744144;82;21032;-71
2022/09/03 10:32:59;;;;;;;3.62;2.55;;;;;;;;;;1734639;82;21115;-71
2022/09/03 10:35:30;;;;;;;10.13;2.70;;;;;;;;;;1739640;82;21499;-71
2022/09/03 10:38:01;;;;;;;4.33;2.45;;;;;;;;;;1748274;82;21013;-70
2022/09/03 10:40:32;;;;;;;21.25;3.90;;;;;;;;;;1732531;81;21091;-74
2022/09/03 10:43:00;;;;;;;4.97;2.92;;;;;;;;;;1741593;82;21572;-74
2022/09/03 10:45:30;;;;;;;4.40;2.80;;;;;;;;;;1696105;82;21056;-73
2022/09/03 10:47:58;;;;;;;7.80;2.62;;;;;;;;;;1733465;82;21072;-75
2022/09/03 10:50:35;;;;;;;5.22;2.90;;;;;;;;;;1739532;82;21025;-77
2022/09/03 10:53:11;;;;;;;3.62;2.67;;;;;;;;;;1679597;85;21124;-78
2022/09/03 10:55:42;;;;;;;10.98;3.20;;;;;;;;;;1742072;82;21069;-77
2022/09/03 10:58:14;;;;;;;8.08;3.12;;;;;;;;;;1747657;82;21702;-77
2022/09/03 11:00:42;;;;;;;6.78;2.80;;;;;;;;;;1746810;82;21008;-76
2022/09/03 11:03:19;;;;;;;3.80;2.50;;;;;;;;;;1735135;82;21091;-76
2022/09/03 11:06:05;;;;;;;6.87;2.92;;;;;;;;;;1731066;82;21326;-75
2022/09/03 11:08:45;;;;;;;4.70;2.65;;;;;;;;;;1733790;82;21066;-77
2022/09/03 11:11:18;;;;;;;7.15;3.02;;;;;;;;;;1743435;82;21647;-78
2022/09/03 11:13:50;;;;;;;4.67;2.87;;;;;;;;;;1747374;82;21021;-77
2022/09/03 11:16:18;;;;;;;5.95;3.58;;;;;;;;;;1727231;82;21076;-77
2022/09/03 11:18:50;;;;;;;5.92;4.28;;;;;;;;;;1732015;82;21084;-75
2022/09/03 11:21:17;;;;;;;4.72;3.47;;;;;;;;;;1739063;82;21084;-74
2022/09/03 11:23:44;;;;;;;4.78;3.47;;;;;;;;;;1747370;82;21028;-75
2022/09/03 11:26:11;;;;;;;5.75;3.50;;;;;;;;;;1730317;82;21063;-75
2022/09/03 11:28:43;;;;;;;7.50;4.05;;;;;;;;;;1722872;82;21075;-76
2022/09/03 11:31:16;;;;;;;6.78;4.08;;;;;;;;;;1747282;82;22124;-76
2022/09/03 11:33:44;;;;;;;6.35;3.52;;;;;;;;;;1742685;82;21084;-76
2022/09/03 11:36:10;;;;;;;4.92;3.50;;;;;;;;;;1733816;82;21034;-75
2022/09/03 11:38:38;;;;;;;6.15;3.65;;;;;;;;;;1728830;82;21061;-76
2022/09/03 11:41:14;;;;;;;7.80;3.92;;;;;;;;;;1722385;82;20974;-75
2022/09/03 11:43:41;;;;;;;5.72;3.80;;;;;;;;;;1738035;82;21029;-74
2022/09/03 11:46:12;;;;;;;5.80;3.60;;;;;;;;;;1729388;82;21088;-75
2022/09/03 11:48:42;;;;;;;8.08;4.10;;;;;;;;;;1736466;82;21057;-75
2022/09/03 11:51:28;;;;;;;7.15;4.10;;;;;;;;;;1732891;82;21056;-75
2022/09/03 11:53:57;;;;;;;8.40;4.40;;;;;;;;;;1723065;82;21560;-75
2022/09/03 11:56:23;;;;;;;7.47;4.42;;;;;;;;;;1738879;82;21052;-76
2022/09/03 11:59:00;;;;;;;8.30;4.60;;;;;;;;;;1739883;81;21537;-75
2022/09/03 12:01:27;;;;;;;10.23;5.55;;;;;;;;;;1769657;81;21061;-75
2022/09/03 12:03:55;;;;;;;6.50;4.65;;;;;;;;;;1769791;81;20986;-73
2022/09/03 12:06:42;;;;;;;8.78;4.50;;;;;;;;;;1763560;81;21071;-76
2022/09/03 12:09:16;;;;;;;7.55;4.30;;;;;;;;;;1718262;82;21040;-76
2022/09/03 12:11:44;;;;;;;6.85;4.35;;;;;;;;;;1709756;84;21049;-76
2022/09/03 12:14:12;;;;;;;6.85;3.87;;;;;;;;;;1709516;84;21151;-76
2022/09/03 12:16:40;;;;;;;7.10;4.22;;;;;;;;;;1718947;82;21022;-76
2022/09/03 12:19:08;;;;;;;6.47;3.80;;;;;;;;;;1739207;82;21073;-75
2022/09/03 12:21:38;;;;;;;8.58;3.95;;;;;;;;;;1739497;82;21054;-77
2022/09/03 12:24:04;;;;;;;7.53;3.80;;;;;;;;;;1739448;82;21057;-75
2022/09/03 12:26:33;;;;;;;6.72;3.77;;;;;;;;;;1732513;82;21508;-77
2022/09/03 12:28:59;;;;;;;6.17;3.52;;;;;;;;;;1710577;84;21051;-75
2022/09/03 12:31:28;;;;;;;4.90;3.20;;;;;;;;;;1710705;84;21050;-75
2022/09/03 12:33:59;;;;;;;8.03;4.20;;;;;;;;;;1725299;82;21041;-76
2022/09/03 12:36:25;;;;;;;8.15;3.20;;;;;;;;;;1739671;82;20994;-76
2022/09/03 12:38:51;;;;;;;4.65;3.35;;;;;;;;;;1739344;82;21025;-76
2022/09/03 12:41:25;;;;;;;10.23;4.03;;;;;;;;;;1748265;81;21013;-75
2022/09/03 12:43:53;;;;;;;6.62;3.40;;;;;;;;;;1721956;82;21576;-75
2022/09/03 12:46:21;;;;;;;6.12;3.47;;;;;;;;;;1717658;83;21127;-77
2022/09/03 12:49:02;;;;;;;9.73;3.02;;;;;;;;;;1717676;83;21013;-76
2022/09/03 12:51:26;;;;;;;11.65;3.33;;;;;;;;;;1722548;82;21068;-76
2022/09/03 12:53:52;;;;;;;5.85;3.00;;;;;;;;;;1747396;82;21029;-76
2022/09/03 12:56:18;;;;;;;5.35;2.87;;;;;;;;;;1746215;82;21056;-75
2022/09/03 12:58:49;;;;;;;5.75;3.45;;;;;;;;;;1742339;82;21189;-76
2022/09/03 13:01:22;;;;;;;6.15;3.20;;;;;;;;;;1742094;82;20997;-76
2022/09/03 13:03:48;;;;;;;;;;;;;;;;;;1733414;82;21576;-75
2022/09/03 13:06:15;;;;;;;7.60;3.40;;;;;;;;;;1746828;82;20138;-76
2022/09/03 13:08:46;;;;;;;5.83;3.42;;;;;;;;;;1722220;82;21056;-75
2022/09/03 13:11:14;;;;;;;9.68;3.77;;;;;;;;;;1741311;82;21033;-76
2022/09/03 13:13:42;;;;;;;6.17;3.70;;;;;;;;;;1740552;82;21045;-76
2022/09/03 13:16:18;;;;;;;5.37;3.52;;;;;;;;;;1735723;82;21097;-77
2022/09/03 13:18:49;;;;;;;5.42;3.83;;;;;;;;;;1723668;82;21049;-76
2022/09/03 13:21:17;;;;;;;6.28;3.40;;;;;;;;;;1676427;84;21103;-76
2022/09/03 13:23:58;;;;;;;5.42;3.22;;;;;;;;;;1735471;82;21042;-77
2022/09/03 13:26:35;;;;;;;5.97;3.40;;;;;;;;;;1745670;82;21061;-77
2022/09/03 13:29:17;;;;;;;7.08;3.55;;;;;;;;;;1745857;82;21537;-77
2022/09/03 13:31:45;;;;;;;6.35;3.70;;;;;;;;;;1725288;82;21538;-76
2022/09/03 13:34:16;;;;;;;6.83;3.67;;;;;;;;;;1728816;82;21012;-76
2022/09/03 13:36:47;;;;;;;6.85;3.83;;;;;;;;;;1730186;82;21127;-75
2022/09/03 13:39:27;;;;;;;9.00;3.98;;;;;;;;;;1721138;82;21071;-77
2022/09/03 13:41:56;;;;;;;7.53;4.25;;;;;;;;;;1737025;82;21020;-74
2022/09/03 13:44:31;;;;;;;9.35;3.90;;;;;;;;;;1719904;82;21083;-76
2022/09/03 13:47:02;;;;;;;8.48;3.92;;;;;;;;;;1743725;82;21030;-77
2022/09/03 13:52:21;;;;;;;6.67;3.52;;;;;;;;;;1741796;82;21643;-78
2022/09/03 13:54:52;;;;;;;6.30;3.42;;;;;;;;;;1736830;82;21111;-76
2022/09/03 13:57:28;;;;;;;6.05;3.65;;;;;;;;;;1723616;82;21015;-77
2022/09/03 14:00:09;;;;;;;7.72;3.62;;;;;;;;;;1728910;82;21528;-76
2022/09/03 14:02:56;;;;;;;6.28;3.77;;;;;;;;;;1744448;82;21064;-77
2022/09/03 14:05:24;;;;;;;10.85;4.22;;;;;;;;;;1742924;82;21071;-76
2022/09/03 14:07:53;;;;;;;4.67;3.52;;;;;;;;;;1722742;82;21021;-76
2022/09/03 14:10:21;;;;;;;6.17;3.62;;;;;;;;;;1727146;82;20981;-74
2022/09/03 14:12:51;;;;;;;5.95;3.75;;;;;;;;;;1728936;82;21551;-76
2022/09/03 14:15:19;;;;;;;9.98;4.10;;;;;;;;;;1732273;82;21084;-76
2022/09/03 14:17:51;;;;;;;5.20;3.58;;;;;;;;;;1720484;82;21469;-75
2022/09/03 14:20:20;;;;;;;10.45;4.05;;;;;;;;;;1739649;82;21123;-75
2022/09/03 14:22:55;;;;;;;4.60;3.50;;;;;;;;;;1734778;82;20993;-75
2022/09/03 14:25:21;;;;;;;8.65;3.50;;;;;;;;;;1731383;82;20997;-75
2022/09/03 14:27:48;;;;;;;6.70;3.40;;;;;;;;;;1737221;82;21536;-73
2022/09/03 14:30:17;;;;;;;7.35;4.35;;;;;;;;;;1737924;82;21072;-73
2022/09/03 14:32:46;;;;;;;6.47;3.98;;;;;;;;;;1726788;82;21011;-73
2022/09/03 14:35:29;;;;;;;8.50;3.90;;;;;;;;;;1727095;82;21032;-73
2022/09/03 14:38:16;;;;;;;5.90;3.40;;;;;;;;;;1736213;82;21037;-74
2022/09/03 14:40:44;;;;;;;4.67;3.30;;;;;;;;;;1733927;81;21112;-73
2022/09/03 14:43:12;;;;;;;5.08;3.42;;;;;;;;;;1721776;82;21028;-73
2022/09/03 14:45:59;;;;;;;6.25;3.80;;;;;;;;;;1727856;82;21041;-73
2022/09/03 14:48:44;;;;;;;5.85;3.35;;;;;;;;;;1671997;84;21077;-73
2022/09/03 14:51:29;;;;;;;5.30;3.40;;;;;;;;;;1684652;83;21562;-72
2022/09/03 14:53:57;;;;;;;5.80;3.83;;;;;;;;;;1696528;83;21104;-73
2022/09/03 14:56:37;;;;;;;6.08;3.55;;;;;;;;;;1707791;82;21076;-73
2022/09/03 14:59:11;;;;;;;7.10;4.80;;;;;;;;;;1718352;82;21033;-72
2022/09/03 15:01:37;;;;;;;7.62;4.62;;;;;;;;;;1716350;82;21847;-73
2022/09/03 15:04:22;;;;;;;12.60;5.55;;;;;;;;;;1725608;82;22233;-72